Flight Track Log - Related Links

Times and Time Zones

All times are in EDT time to prevent confusion due to time zone crossing. See the EJA982 flight status page for this flight to view local times or setup timezone preferences in your user account.

Time Position Orientation Groundspeed Altitude Reporting Facility
EDT Latitude Longitude Course Direction KTS MPH feet Rate Location/Type
07:41PM 33.9953 -118.5089 306° West 197 227 2,800  Level Los Angeles Center
07:42PM 33.9714 -118.5853 249° West 231 266 5,200 2,000 Climbing Los Angeles Center
07:43PM 33.9436 -118.6717 249° West 278 320 6,900 2,468 Climbing Los Angeles Center
07:44PM 33.9261 -118.7631 257° West 276 318 10,300 2,903 Climbing Los Angeles Center
07:45PM 33.9164 -118.8542 263° West 281 323 12,900 2,226 Climbing Los Angeles Center
07:46PM 34.3844 -119.5461 306° West  Level FlightAware Approximate
07:46PM 33.9061 -118.9608 263° West 322 371 14,900  Level Los Angeles Center
07:47PM 33.8944 -119.0769 263° West 352 405 16,400 1,659 Climbing Los Angeles Center
07:48PM 33.9044 -119.2281 275° West 384 442 18,300 1,645 Climbing Los Angeles Center
07:49PM 33.9578 -119.3389 300° West 391 450 19,800 1,452 Climbing Los Angeles Center
07:50PM 34.0544 -119.4136 327° Northwest 409 471 21,300 1,456 Climbing Los Angeles Center
07:51PM 34.1697 -119.5047 327° Northwest 413 475 23,100 1,456 Climbing Los Angeles Center
07:52PM 34.2686 -119.5819 327° Northwest 421 484 24,600 1,452 Climbing Los Angeles Center
07:53PM 34.3686 -119.6606 327° Northwest 429 494 26,100 1,452 Climbing Los Angeles Center
07:54PM 34.4697 -119.7411 327° Northwest 435 501 27,600 1,610 Climbing Los Angeles Center
07:55PM 34.5844 -119.8561 320° Northwest 446 513 29,400 1,171 Climbing Los Angeles Center
07:56PM 34.6825 -119.9592 319° Northwest 452 520 30,000 290 Climbing Los Angeles Center
07:57PM 34.7822 -120.0689 318° Northwest 483 556 30,000  Level Los Angeles Center
07:58PM 34.8772 -120.1722 318° Northwest 495 570 30,000  Level Los Angeles Center
07:59PM 34.9794 -120.2844 318° Northwest 502 578 30,000  Level Los Angeles Center
08:00PM 35.1017 -120.4214 318° Northwest 504 580 30,000  Level Los Angeles Center
08:01PM 35.2017 -120.5328 318° Northwest 492 566 30,000  Level Los Angeles Center
08:02PM 35.3028 -120.6464 317° Northwest 497 572 30,000  Level Los Angeles Center
08:04PM 35.4131 -120.7503 322° Northwest 503 579 30,000  Level Los Angeles Center
08:05PM 35.5269 -120.8500 325° Northwest 505 581 30,000  Level Los Angeles Center
08:06PM 35.6617 -120.9719 324° Northwest 507 583 30,000 -49 Level Los Angeles Center
08:07PM 35.7739 -121.0736 324° Northwest 501 577 29,900 -878 Descending Los Angeles Center
08:08PM 35.8881 -121.1772 324° Northwest 506 582 28,200 -1,620 Descending Los Angeles Center
08:09PM 36.0236 -121.3006 324° Northwest 504 580 26,200 -1,620 Descending Oakland Center
08:10PM 36.1336 -121.4000 324° Northwest 498 573 24,500 -1,610 Descending Oakland Center
08:11PM 36.2386 -121.4953 324° Northwest 484 557 22,900 -1,525 Descending Oakland Center
08:12PM 36.3400 -121.5897 323° Northwest 469 540 21,400 -1,426 Descending Oakland Center
08:13PM 36.4406 -121.6825 323° Northwest 459 528 20,000 -689 Descending Oakland Center
08:14PM 36.5550 -121.7883 323° Northwest 440 506 20,000  Level Oakland Center
08:15PM 36.6508 -121.8769 323° Northwest 433 498 20,000 -1,033 Level Oakland Center
08:16PM 36.7517 -121.9678 324° Northwest 439 505 17,900 -2,115 Descending Oakland Center
08:17PM 36.8692 -121.9964 349° North 429 494 15,700 -2,115 Descending Oakland Center
08:18PM 36.9789 -122.0267 348° North 407 468 13,600 -1,967 Descending Oakland Center
08:19PM 37.0844 -122.0531 349° North 394 453 11,700 -1,770 Descending Oakland Center
08:20PM 37.1692 -122.0742 349° North 324 373 10,000 -1,721 Descending Oakland Center
08:21PM 37.2453 -122.0953 348° North 290 334 8,200 -1,770 Descending Oakland Center
08:22PM 37.3181 -122.1150 348° North 272 313 6,400 -1,756 Descending Oakland Center
08:23PM 37.3889 -122.1336 348° North 265 305 4,600 -1,171 Descending Oakland Center
08:24PM 37.4572 -122.1528 347° North 259 298 4,000 -836 Descending Oakland Center
08:25PM 37.5353 -122.1756 347° North 249 287 2,900 -1,082 Descending Oakland Center
08:26PM 37.5681 -122.2506 299° West 246 283 1,800 -984 Descending Oakland Center
08:27PM 37.5922 -122.3083 298° West 213 245 900 -787 Descending Oakland Center
08:28PM 37.6086 -122.3458 299° West 157 181 200 -393 Descending Oakland Center
08:29PM 37.6258 -122.3811 302° West 150 173 100 -98 Descending Oakland Center
08:31PM 37.6167 -122.3667 North  Level FlightAware Approximate

Login

Don't have an account? Register now (free) for customized features, flight alerts, and more!